createdAt,value
2017-10-18T00:01:13.351Z,69.20
2017-10-18T00:03:39.634Z,69.20
2017-10-18T00:06:05.922Z,68.90
2017-10-18T00:08:32.937Z,68.90
2017-10-18T00:10:59.189Z,68.80
2017-10-18T00:13:26.199Z,68.70
2017-10-18T00:15:52.478Z,68.70
2017-10-18T00:18:19.479Z,67.60
2017-10-18T00:20:45.755Z,67.90
2017-10-18T00:23:12.008Z,67.60
2017-10-18T00:25:38.973Z,67.60
2017-10-18T00:28:05.237Z,67.50
2017-10-18T00:30:32.262Z,67.00
2017-10-18T00:32:58.531Z,67.00
2017-10-18T00:35:25.530Z,67.50
2017-10-18T00:37:51.798Z,67.50
2017-10-18T00:40:18.823Z,67.50
2017-10-18T00:42:45.114Z,67.80
2017-10-18T00:45:11.378Z,67.50
2017-10-18T00:47:37.666Z,67.70
2017-10-18T00:50:04.642Z,67.40
2017-10-18T00:52:30.898Z,67.40
2017-10-18T00:54:57.904Z,67.50
2017-10-18T00:57:24.182Z,67.30
2017-10-18T00:59:50.472Z,67.40
2017-10-18T01:02:16.728Z,67.40
2017-10-18T01:04:42.959Z,67.60
2017-10-18T01:07:09.262Z,67.30
2017-10-18T01:09:35.546Z,68.10
2017-10-18T01:12:01.806Z,67.90
2017-10-18T01:14:28.051Z,67.90
2017-10-18T01:16:55.067Z,67.40
2017-10-18T01:19:21.342Z,67.30
2017-10-18T01:21:47.627Z,67.40
2017-10-18T01:24:13.891Z,67.70
2017-10-18T01:26:40.902Z,67.40
2017-10-18T01:29:07.902Z,67.70
2017-10-18T01:31:34.898Z,67.80
2017-10-18T01:34:01.162Z,67.80
2017-10-18T01:36:27.500Z,67.50
2017-10-18T01:38:54.497Z,68.20
2017-10-18T01:41:20.734Z,68.20
2017-10-18T01:43:47.074Z,68.40
2017-10-18T01:46:13.400Z,68.70
2017-10-18T01:48:39.662Z,69.30
2017-10-18T01:51:06.653Z,69.30
2017-10-18T01:53:32.914Z,69.30
2017-10-18T01:55:59.922Z,68.70
2017-10-18T01:58:26.234Z,68.60
2017-10-18T02:00:52.508Z,68.20
2017-10-18T02:03:18.742Z,69.90
2017-10-18T02:05:44.990Z,69.20
2017-10-18T02:08:11.983Z,68.80
2017-10-18T02:10:38.238Z,68.80
2017-10-18T02:13:05.234Z,69.30
2017-10-18T02:15:31.523Z,69.20
2017-10-18T02:17:58.598Z,68.90
2017-10-18T02:20:24.855Z,68.90
2017-10-18T02:22:51.122Z,68.90
2017-10-18T02:25:18.111Z,68.90
2017-10-18T02:27:44.373Z,68.70
2017-10-18T02:30:10.610Z,68.90
2017-10-18T02:32:36.858Z,68.50
2017-10-18T02:35:03.082Z,68.90
2017-10-18T02:37:30.096Z,68.90
2017-10-18T02:39:56.358Z,68.90
2017-10-18T02:42:23.346Z,70.10
2017-10-18T02:44:49.606Z,70.10
2017-10-18T02:47:15.844Z,70.10
2017-10-18T02:49:42.850Z,69.50
2017-10-18T02:52:09.102Z,69.40
2017-10-18T02:54:35.388Z,70.40
2017-10-18T02:57:01.664Z,70.70
2017-10-18T02:59:28.742Z,72.30
2017-10-18T03:01:54.998Z,72.20
2017-10-18T03:04:21.286Z,73.00
2017-10-18T03:06:48.275Z,72.70
2017-10-18T03:09:14.507Z,72.70
2017-10-18T03:11:40.776Z,72.60
2017-10-18T03:14:07.043Z,71.90
2017-10-18T03:16:33.316Z,71.10
2017-10-18T03:18:59.562Z,70.90
2017-10-18T03:21:26.083Z,70.50
2017-10-18T03:23:53.182Z,70.00
2017-10-18T03:26:19.447Z,70.00
2017-10-18T03:28:45.725Z,70.40
2017-10-18T03:31:12.009Z,69.70
2017-10-18T03:33:39.034Z,69.30
2017-10-18T03:36:06.992Z,69.50
2017-10-18T03:38:33.092Z,69.50
2017-10-18T03:40:59.350Z,69.40
2017-10-18T03:43:25.633Z,69.40
2017-10-18T03:45:52.642Z,70.60
2017-10-18T03:48:18.708Z,70.50
2017-10-18T03:50:45.686Z,72.50
2017-10-18T03:53:11.906Z,72.50
2017-10-18T03:55:38.822Z,71.90
2017-10-18T03:58:05.083Z,72.70
2017-10-18T04:00:31.319Z,72.60
2017-10-18T04:02:57.574Z,72.80
2017-10-18T04:05:24.017Z,71.60
2017-10-18T04:07:50.347Z,74.10
2017-10-18T04:10:17.376Z,75.60
2017-10-18T04:12:44.394Z,74.20
2017-10-18T04:15:10.702Z,74.70
2017-10-18T04:17:36.988Z,72.40
2017-10-18T04:20:04.002Z,71.50
2017-10-18T04:22:30.264Z,71.40
2017-10-18T04:24:56.543Z,71.30
2017-10-18T04:27:22.769Z,70.50
2017-10-18T04:29:49.018Z,70.10
2017-10-18T04:32:15.283Z,70.10
2017-10-18T04:34:42.303Z,70.00
2017-10-18T04:37:08.579Z,70.00
2017-10-18T04:39:34.853Z,70.60
2017-10-18T04:42:01.958Z,70.30
2017-10-18T04:44:28.223Z,70.30
2017-10-18T04:46:54.520Z,70.10
2017-10-18T04:49:20.785Z,69.30
2017-10-18T04:51:47.074Z,69.70
2017-10-18T04:54:13.336Z,70.50
2017-10-18T04:56:39.613Z,72.80
2017-10-18T04:59:05.911Z,71.10
2017-10-18T05:01:32.139Z,71.90
2017-10-18T05:03:59.177Z,71.80
2017-10-18T05:06:25.427Z,71.70
2017-10-18T05:08:52.422Z,72.20
2017-10-18T05:11:18.673Z,72.00
2017-10-18T05:13:44.923Z,71.80
2017-10-18T05:16:11.929Z,71.90
2017-10-18T05:18:38.185Z,71.90
2017-10-18T05:21:04.434Z,71.90
2017-10-18T05:23:30.840Z,71.80
2017-10-18T05:25:59.963Z,72.20
2017-10-18T05:28:26.214Z,72.20
2017-10-18T05:30:52.476Z,74.30
2017-10-18T05:33:19.528Z,75.80
2017-10-18T05:35:45.784Z,75.60
2017-10-18T05:38:12.116Z,74.90
2017-10-18T05:40:38.403Z,74.10
2017-10-18T05:43:04.646Z,73.90
2017-10-18T05:45:30.875Z,73.70
2017-10-18T05:47:57.119Z,73.60
2017-10-18T05:50:23.387Z,76.00
2017-10-18T05:52:49.649Z,78.50
2017-10-18T05:55:15.914Z,77.80
2017-10-18T05:57:42.169Z,79.10
2017-10-18T06:00:08.429Z,80.80
2017-10-18T06:02:34.688Z,81.80
2017-10-18T06:05:01.741Z,85.50
2017-10-18T06:07:28.194Z,85.50
2017-10-18T06:09:54.423Z,84.10
2017-10-18T06:12:20.687Z,85.00
2017-10-18T06:14:46.935Z,82.50
2017-10-18T06:17:13.936Z,85.60
2017-10-18T06:19:40.234Z,85.60
2017-10-18T06:22:07.574Z,84.30
2017-10-18T06:24:33.875Z,82.70
2017-10-18T06:27:00.142Z,85.50
2017-10-18T06:29:26.459Z,85.40
2017-10-18T06:31:53.461Z,86.20
2017-10-18T06:34:19.709Z,86.80
2017-10-18T06:36:46.734Z,88.30
2017-10-18T06:39:12.983Z,88.50
2017-10-18T06:41:40.002Z,89.20
2017-10-18T06:44:06.251Z,89.10
2017-10-18T06:46:32.533Z,89.10
2017-10-18T06:48:58.794Z,89.80
2017-10-18T06:51:25.035Z,90.10
2017-10-18T06:53:51.282Z,86.20
2017-10-18T06:56:20.382Z,85.90
2017-10-18T06:58:47.466Z,83.50
2017-10-18T07:01:13.563Z,83.40
2017-10-18T07:03:39.610Z,83.30
2017-10-18T07:06:05.881Z,81.60
2017-10-18T07:08:32.139Z,82.50
2017-10-18T07:10:59.143Z,85.00
2017-10-18T07:13:25.381Z,85.00
2017-10-18T07:15:52.394Z,83.40
2017-10-18T07:18:18.465Z,83.30
2017-10-18T07:20:44.880Z,83.80
2017-10-18T07:23:11.274Z,85.60
2017-10-18T07:25:37.559Z,85.80
2017-10-18T07:28:03.859Z,86.50
2017-10-18T07:30:30.088Z,86.70
2017-10-18T07:32:57.421Z,85.10
2017-10-18T07:35:23.712Z,85.70
2017-10-18T07:37:50.679Z,85.60
2017-10-18T07:40:16.945Z,85.60
2017-10-18T07:42:43.187Z,86.30
2017-10-18T07:45:10.186Z,83.40
2017-10-18T07:47:36.451Z,83.40
2017-10-18T07:50:03.443Z,82.60
2017-10-18T07:52:29.725Z,82.40
2017-10-18T07:54:56.764Z,81.00
2017-10-18T07:57:23.590Z,84.50
2017-10-18T07:59:49.678Z,84.40
2017-10-18T08:02:15.746Z,85.00
2017-10-18T08:04:41.819Z,85.70
2017-10-18T08:07:08.054Z,86.60
2017-10-18T08:09:34.330Z,85.80
2017-10-18T08:12:00.577Z,83.50
2017-10-18T08:14:27.715Z,85.60
2017-10-18T08:16:54.518Z,82.50
2017-10-18T08:19:20.587Z,82.40
2017-10-18T08:21:47.625Z,79.80
2017-10-18T08:24:14.423Z,80.60
2017-10-18T08:26:40.490Z,80.60
2017-10-18T08:29:07.308Z,79.70
2017-10-18T08:31:33.600Z,79.60
2017-10-18T08:33:59.859Z,76.60
2017-10-18T08:36:26.127Z,75.00
2017-10-18T08:38:52.416Z,77.50
2017-10-18T08:41:18.675Z,76.00
2017-10-18T08:43:44.958Z,77.50
2017-10-18T08:46:11.223Z,74.40
2017-10-18T08:48:38.294Z,74.40
2017-10-18T08:51:04.583Z,74.40
2017-10-18T08:53:30.891Z,74.50
2017-10-18T08:55:57.141Z,75.90
2017-10-18T08:58:23.382Z,74.30
2017-10-18T09:00:49.671Z,72.40
2017-10-18T09:03:15.938Z,73.30
2017-10-18T09:05:42.984Z,70.50
2017-10-18T09:08:10.032Z,70.90
2017-10-18T09:10:36.299Z,70.90
2017-10-18T09:13:02.565Z,68.80
2017-10-18T09:15:29.005Z,69.00
2017-10-18T09:17:55.286Z,72.00
2017-10-18T09:20:22.297Z,73.10
2017-10-18T09:22:49.323Z,73.10
2017-10-18T09:25:15.574Z,73.10
2017-10-18T09:27:42.058Z,72.40
2017-10-18T09:30:08.378Z,68.10
2017-10-18T09:32:34.643Z,67.20
2017-10-18T09:35:01.643Z,68.60
2017-10-18T09:37:27.878Z,69.20
2017-10-18T09:39:54.143Z,65.40
2017-10-18T09:42:21.234Z,65.70
2017-10-18T09:44:48.201Z,65.10
2017-10-18T09:47:14.498Z,64.30
2017-10-18T09:49:40.763Z,63.20
2017-10-18T09:52:07.029Z,60.80
2017-10-18T09:54:34.026Z,57.70
2017-10-18T09:57:00.274Z,57.70
2017-10-18T09:59:26.556Z,59.30
2017-10-18T10:01:53.526Z,59.10
2017-10-18T10:04:19.801Z,59.10
2017-10-18T10:06:46.055Z,58.60
2017-10-18T10:09:12.313Z,58.40
2017-10-18T10:11:38.569Z,58.10
2017-10-18T10:14:06.126Z,55.50
2017-10-18T10:16:32.403Z,55.50
2017-10-18T10:18:58.663Z,55.40
2017-10-18T10:21:24.906Z,52.50
2017-10-18T10:23:51.930Z,53.30
2017-10-18T10:26:18.169Z,53.30
2017-10-18T10:28:44.408Z,53.20
2017-10-18T10:31:10.690Z,52.10
2017-10-18T10:33:36.962Z,50.70
2017-10-18T10:36:03.215Z,50.60
2017-10-18T10:38:29.492Z,46.10
2017-10-18T10:40:55.734Z,45.30
2017-10-18T10:43:22.030Z,42.00
2017-10-18T10:45:48.289Z,41.50
2017-10-18T10:48:14.537Z,40.90
2017-10-18T10:50:40.814Z,39.90
2017-10-18T10:53:07.071Z,37.00
2017-10-18T10:55:33.322Z,38.20
2017-10-18T10:57:59.553Z,37.70
2017-10-18T11:00:26.599Z,36.30
2017-10-18T11:02:53.599Z,34.90
2017-10-18T11:05:19.856Z,35.10
2017-10-18T11:07:46.119Z,36.10
2017-10-18T11:10:13.113Z,35.80
2017-10-18T11:12:39.445Z,36.50
2017-10-18T11:17:28.643Z,38.30
2017-10-18T11:19:55.074Z,36.20
2017-10-18T11:22:21.339Z,36.50
2017-10-18T11:24:47.587Z,35.20
2017-10-18T11:27:13.851Z,35.30
2017-10-18T11:29:46.809Z,34.30
2017-10-18T11:32:13.074Z,35.70
2017-10-18T11:34:40.089Z,35.80
2017-10-18T11:37:06.385Z,35.60
2017-10-18T11:39:32.630Z,34.30
2017-10-18T11:41:58.880Z,35.10
2017-10-18T11:44:25.945Z,34.50
2017-10-18T11:46:52.214Z,34.50
2017-10-18T11:49:18.455Z,34.60
2017-10-18T11:51:44.721Z,32.60
2017-10-18T11:54:10.964Z,36.90
2017-10-18T11:56:37.991Z,32.60
2017-10-18T11:59:04.268Z,32.50
2017-10-18T12:01:30.529Z,31.10
2017-10-18T12:03:56.826Z,32.60
2017-10-18T12:06:23.123Z,33.60
2017-10-18T12:08:50.126Z,33.10
2017-10-18T12:11:16.429Z,33.10
2017-10-18T12:13:42.718Z,32.00
2017-10-18T12:16:09.747Z,37.00
2017-10-18T12:18:36.003Z,36.80
2017-10-18T12:21:02.270Z,32.50
2017-10-18T12:23:28.584Z,33.40
2017-10-18T12:25:54.898Z,33.10
2017-10-18T12:28:21.218Z,31.00
2017-10-18T12:30:48.233Z,33.70
2017-10-18T12:33:14.474Z,33.50
2017-10-18T12:35:40.743Z,33.80
2017-10-18T12:38:07.754Z,33.00
2017-10-18T12:40:34.779Z,35.30
2017-10-18T12:43:01.066Z,35.50
2017-10-18T12:45:27.385Z,33.30
2017-10-18T12:47:53.979Z,32.20
2017-10-18T12:50:20.231Z,33.30
2017-10-18T12:52:46.506Z,31.80
2017-10-18T12:55:12.886Z,34.90
2017-10-18T12:57:39.166Z,32.60
2017-10-18T13:00:05.467Z,32.80
2017-10-18T13:02:31.746Z,31.90
2017-10-18T13:04:58.023Z,31.70
2017-10-18T13:07:24.270Z,31.60
2017-10-18T13:09:50.539Z,34.20
2017-10-18T13:12:16.936Z,31.90
2017-10-18T13:14:43.433Z,30.90
2017-10-18T13:17:10.454Z,31.30
2017-10-18T13:19:37.520Z,32.70
2017-10-18T13:22:04.499Z,32.40
2017-10-18T13:24:30.778Z,31.60
2017-10-18T13:26:57.056Z,32.00
2017-10-18T13:29:23.291Z,33.10
2017-10-18T13:31:49.551Z,31.90
2017-10-18T13:34:16.636Z,31.60
2017-10-18T13:36:42.906Z,31.60
2017-10-18T13:39:09.179Z,33.00
2017-10-18T13:41:35.430Z,35.70
2017-10-18T13:44:01.718Z,32.70
2017-10-18T13:46:28.010Z,30.50
2017-10-18T13:48:54.769Z,32.90
2017-10-18T13:51:21.018Z,31.00
2017-10-18T13:53:47.317Z,31.00
2017-10-18T13:56:13.608Z,29.70
2017-10-18T13:58:39.878Z,31.70
2017-10-18T14:01:06.903Z,31.20
2017-10-18T14:03:33.174Z,31.10
2017-10-18T14:06:00.207Z,30.40
2017-10-18T14:08:27.327Z,33.00
2017-10-18T14:10:53.826Z,32.90
2017-10-18T14:13:20.100Z,30.50
2017-10-18T14:15:46.403Z,30.70
2017-10-18T14:18:12.790Z,30.40
2017-10-18T14:20:39.831Z,31.00
2017-10-18T14:23:06.100Z,31.00
2017-10-18T14:25:32.399Z,31.30
2017-10-18T14:27:59.421Z,30.60
2017-10-18T14:30:26.434Z,29.70
2017-10-18T14:32:52.993Z,29.60
2017-10-18T14:35:20.043Z,30.30
2017-10-18T14:37:47.091Z,30.20
2017-10-18T14:40:13.361Z,30.20
2017-10-18T14:42:41.174Z,30.00
2017-10-18T14:45:07.444Z,29.90
2017-10-18T14:47:33.727Z,31.20
2017-10-18T14:50:00.752Z,31.20
2017-10-18T14:52:27.046Z,31.00
2017-10-18T14:54:53.291Z,31.80
2017-10-18T14:57:19.547Z,31.00
2017-10-18T14:59:45.824Z,31.40
2017-10-18T15:02:12.135Z,33.50
2017-10-18T15:04:38.422Z,33.20
2017-10-18T15:07:04.692Z,33.30
2017-10-18T15:09:31.002Z,33.60
2017-10-18T15:11:57.301Z,34.90
2017-10-18T15:14:23.594Z,35.70
2017-10-18T15:16:49.882Z,35.60
2017-10-18T15:19:16.195Z,35.40
2017-10-18T15:21:42.521Z,36.50
2017-10-18T15:24:08.843Z,38.00
2017-10-18T15:26:35.127Z,36.80
2017-10-18T15:29:01.406Z,37.50
2017-10-18T15:31:27.696Z,38.10
2017-10-18T15:33:53.971Z,37.20
2017-10-18T15:36:20.241Z,37.70
2017-10-18T15:38:46.601Z,38.40
2017-10-18T15:41:12.878Z,39.40
2017-10-18T15:43:44.632Z,39.90
2017-10-18T15:46:11.651Z,39.00
2017-10-18T15:48:37.883Z,38.90
2017-10-18T15:51:04.166Z,40.60
2017-10-18T15:53:30.470Z,41.10
2017-10-18T15:55:58.468Z,42.00
2017-10-18T15:58:24.882Z,42.00
2017-10-18T16:00:51.174Z,42.50
2017-10-18T16:03:18.254Z,43.50
2017-10-18T16:05:45.238Z,44.30
2017-10-18T16:08:11.518Z,44.30
2017-10-18T16:10:38.507Z,46.30
2017-10-18T16:13:04.793Z,46.30
2017-10-18T16:15:31.800Z,47.30
2017-10-18T16:17:58.099Z,47.20
2017-10-18T16:20:24.631Z,47.10
2017-10-18T16:22:51.790Z,48.50
2017-10-18T16:25:18.987Z,49.30
2017-10-18T16:27:46.149Z,50.00
2017-10-18T16:30:12.496Z,49.90
2017-10-18T16:32:39.839Z,50.00
2017-10-18T16:35:06.146Z,50.30
2017-10-18T16:37:33.278Z,50.70
2017-10-18T16:39:59.574Z,50.60
2017-10-18T16:42:25.877Z,51.10
2017-10-18T16:44:52.183Z,52.10
2017-10-18T16:47:20.333Z,53.40
2017-10-18T16:49:46.830Z,53.30
2017-10-18T16:52:13.098Z,53.30
2017-10-18T16:54:39.532Z,53.40
2017-10-18T16:57:06.622Z,54.60
2017-10-18T16:59:33.616Z,55.00
2017-10-18T17:01:59.959Z,54.90
2017-10-18T17:04:27.007Z,55.50
2017-10-18T17:06:53.396Z,55.80
2017-10-18T17:09:19.724Z,55.00
2017-10-18T17:11:45.999Z,54.90
2017-10-18T17:14:13.026Z,55.60
2017-10-18T17:16:39.334Z,55.50
2017-10-18T17:19:05.614Z,55.60
2017-10-18T17:21:32.638Z,56.10
2017-10-18T17:23:59.654Z,56.30
2017-10-18T17:26:25.944Z,56.30
2017-10-18T17:28:52.254Z,56.30
2017-10-18T17:31:18.537Z,56.60
2017-10-18T17:33:44.791Z,56.50
2017-10-18T17:36:11.114Z,56.80
2017-10-18T17:38:37.381Z,56.80
2017-10-18T17:41:04.509Z,56.80
2017-10-18T17:43:31.526Z,57.40
2017-10-18T17:45:57.792Z,57.40
2017-10-18T17:48:24.070Z,57.90
2017-10-18T17:50:50.350Z,58.30
2017-10-18T17:53:17.369Z,57.70
2017-10-18T17:55:44.399Z,58.00
2017-10-18T17:58:10.674Z,57.90
2017-10-18T18:00:36.931Z,57.70
2017-10-18T18:03:03.227Z,58.60
2017-10-18T18:05:30.242Z,59.50
2017-10-18T18:07:57.380Z,59.40
2017-10-18T18:10:23.699Z,59.40
2017-10-18T18:12:50.099Z,59.10
2017-10-18T18:15:16.455Z,59.30
2017-10-18T18:17:42.779Z,59.30
2017-10-18T18:20:09.145Z,59.30
2017-10-18T18:22:35.394Z,59.30
2017-10-18T18:25:03.471Z,60.50
2017-10-18T18:27:29.804Z,60.50
2017-10-18T18:29:56.847Z,60.70
2017-10-18T18:32:23.950Z,61.00
2017-10-18T18:34:50.262Z,60.90
2017-10-18T18:37:16.604Z,61.00
2017-10-18T18:39:42.967Z,61.20
2017-10-18T18:42:10.075Z,60.80
2017-10-18T18:44:36.523Z,60.80
2017-10-18T18:47:03.841Z,60.90
2017-10-18T18:49:30.142Z,61.00
2017-10-18T18:51:56.587Z,61.00
2017-10-18T18:54:22.895Z,61.20
2017-10-18T18:56:49.207Z,61.00
2017-10-18T18:59:15.455Z,61.30
2017-10-18T19:01:41.746Z,60.60
2017-10-18T19:04:09.065Z,61.00
2017-10-18T19:06:35.373Z,61.20
2017-10-18T19:09:01.657Z,61.00
2017-10-18T19:11:27.914Z,61.20
2017-10-18T19:13:54.932Z,61.50
2017-10-18T19:16:21.243Z,61.50
2017-10-18T19:18:48.584Z,61.40
2017-10-18T19:21:14.874Z,61.20
2017-10-18T19:23:41.919Z,61.80
2017-10-18T19:26:08.949Z,62.20
2017-10-18T19:28:35.229Z,62.10
2017-10-18T19:31:01.574Z,61.90
2017-10-18T19:33:27.856Z,61.90
2017-10-18T19:35:54.140Z,61.80
2017-10-18T19:38:20.429Z,61.70
2017-10-18T19:40:46.715Z,61.50
2017-10-18T19:43:13.738Z,62.30
2017-10-18T19:45:40.037Z,62.30
2017-10-18T19:48:06.354Z,62.10
2017-10-18T19:50:32.715Z,61.50
2017-10-18T19:52:59.033Z,62.00
2017-10-18T19:55:25.334Z,62.10
2017-10-18T19:57:53.413Z,62.00
2017-10-18T20:00:19.767Z,61.90
2017-10-18T20:02:46.064Z,62.20
2017-10-18T20:05:12.352Z,62.50
2017-10-18T20:07:38.755Z,63.00
2017-10-18T20:10:05.081Z,62.50
2017-10-18T20:12:31.474Z,62.10
2017-10-18T20:14:58.955Z,62.40
2017-10-18T20:17:25.259Z,62.90
2017-10-18T20:19:52.306Z,62.50
2017-10-18T20:22:19.812Z,62.40
2017-10-18T20:24:47.082Z,62.90
2017-10-18T20:27:13.473Z,62.90
2017-10-18T20:29:39.787Z,63.20
2017-10-18T20:32:06.797Z,62.70
2017-10-18T20:34:35.878Z,62.70
2017-10-18T20:37:02.219Z,62.70
2017-10-18T20:39:29.167Z,61.70
2017-10-18T20:41:56.015Z,62.30
2017-10-18T20:44:22.865Z,62.50
2017-10-18T20:46:49.011Z,62.40
2017-10-18T20:49:15.173Z,62.70
2017-10-18T20:51:41.431Z,63.00
2017-10-18T20:54:07.592Z,63.30
2017-10-18T20:56:33.760Z,62.50
2017-10-18T20:59:04.288Z,62.90
2017-10-18T21:01:30.528Z,62.80
2017-10-18T21:03:57.386Z,62.90
2017-10-18T21:06:24.271Z,63.10
2017-10-18T21:08:50.433Z,63.00
2017-10-18T21:11:21.116Z,63.40
2017-10-18T21:13:47.633Z,63.40
2017-10-18T21:16:13.879Z,63.10
2017-10-18T21:18:40.139Z,63.10
2017-10-18T21:21:06.261Z,63.10
2017-10-18T21:23:32.531Z,62.70
2017-10-18T21:25:59.799Z,62.90
2017-10-18T21:28:26.085Z,63.00
2017-10-18T21:30:54.694Z,63.40
2017-10-18T21:33:20.992Z,63.30
2017-10-18T21:35:47.830Z,63.10
2017-10-18T21:38:13.958Z,63.00
2017-10-18T21:40:40.808Z,63.20
2017-10-18T21:43:07.720Z,63.40
2017-10-18T21:45:33.953Z,64.40
2017-10-18T21:48:00.064Z,63.70
2017-10-18T21:50:26.206Z,63.80
2017-10-18T21:52:52.359Z,63.90
2017-10-18T21:55:19.316Z,64.10
2017-10-18T21:57:45.535Z,64.00
2017-10-18T22:00:11.939Z,64.10
2017-10-18T22:02:38.049Z,64.50
2017-10-18T22:05:04.179Z,64.60
2017-10-18T22:07:30.285Z,65.00
2017-10-18T22:09:56.410Z,64.60
2017-10-18T22:12:23.274Z,63.60
2017-10-18T22:14:50.303Z,63.90
2017-10-18T22:17:16.423Z,63.90
2017-10-18T22:19:42.566Z,63.80
2017-10-18T22:22:08.684Z,64.00
2017-10-18T22:24:35.573Z,64.90
2017-10-18T22:27:01.733Z,64.80
2017-10-18T22:29:27.879Z,64.70
2017-10-18T22:31:53.998Z,65.30
2017-10-18T22:34:20.106Z,65.30
2017-10-18T22:36:46.211Z,65.40
2017-10-18T22:39:13.069Z,64.70
2017-10-18T22:41:40.015Z,64.50
2017-10-18T22:44:06.134Z,64.30
2017-10-18T22:46:32.244Z,64.80
2017-10-18T22:48:58.372Z,64.30
2017-10-18T22:51:25.231Z,64.60
2017-10-18T22:53:51.378Z,64.70
2017-10-18T22:56:17.490Z,65.00
2017-10-18T22:58:43.618Z,64.80
2017-10-18T23:01:09.732Z,64.70
2017-10-18T23:03:35.859Z,64.60
2017-10-18T23:06:03.094Z,65.00
2017-10-18T23:08:29.992Z,66.10
2017-10-18T23:10:56.852Z,65.40
2017-10-18T23:13:22.970Z,65.20
2017-10-18T23:15:49.085Z,64.90
2017-10-18T23:18:15.273Z,65.60
2017-10-18T23:20:41.361Z,65.30
2017-10-18T23:23:08.276Z,64.70
2017-10-18T23:25:35.171Z,64.30
2017-10-18T23:28:01.274Z,64.30
2017-10-18T23:30:27.431Z,64.50
2017-10-18T23:32:53.545Z,64.60
2017-10-18T23:35:19.666Z,64.80
2017-10-18T23:37:45.751Z,64.80
2017-10-18T23:40:11.954Z,64.70
2017-10-18T23:42:38.028Z,64.90
2017-10-18T23:45:04.119Z,64.50
2017-10-18T23:47:30.964Z,64.70
2017-10-18T23:49:57.791Z,65.50
2017-10-18T23:52:29.920Z,65.50
2017-10-18T23:54:56.008Z,65.10
2017-10-18T23:57:22.110Z,64.90
2017-10-18T23:59:49.015Z,65.10
